Tuesday, February 20, 2018, 9:22 AM GMT
Back to Local

CWIS, Charlevoix CS , Que.

Location: , , Canada Lat: 47.283
Local Time: 9:22 AM GMT ( 9:22 GMT) Lon: -70.633
Time Zone: GMT Elev: 2358 ft

Show me the last for .
Show Decoded

2018-02-20 09:00 METAR CWIS 200900Z AUTO 04004KT M02/M02 RMK AO1 SOG 60 1010 SLP228 T10181018
                 50007 =
2018-02-20 08:00 METAR CWIS 200800Z AUTO 04004KT M01/ RMK AO1 7PAST HR SOG 59 1010 SLP223 P0003
                 T1005 50007 =
2018-02-20 07:00 METAR CWIS 200700Z AUTO 01002KT M01/M01 RMK AO1 SOG 60 3006 SLP223 T10131013 =
2018-02-20 06:00 METAR CWIS 200600Z AUTO 29001KT M01/M01 RMK AO1 SOG 60 1008 SLP218 T10131013 =
2018-02-20 05:00 METAR CWIS 200500Z AUTO 00000KT M01/M01 RMK AO1 SOG 60 0002 SLP214 T10131013 =
2018-02-20 04:00 METAR CWIS 200400Z AUTO 27003KT M01/M01 RMK AO1 SOG 60 3011 SLP219 T10121013 =
2018-02-20 03:00 METAR CWIS 200300Z AUTO 25004KT M01/M02 RMK AO1 SOG 60 0002 SLP212 T10111019 =
2018-02-20 02:00 METAR CWIS 200200Z AUTO 25006G15KT M01/M03 RMK AO1 SOG 60 3007 SLP215 T10071031
                 =
2018-02-20 01:00 METAR CWIS 200100Z AUTO 23006KT M00/M04 RMK AO1 SOG 60 6002 SLP208 T10021042 =
2018-02-20 00:00 METAR CWIS 200000Z AUTO 22004KT M01/M05 RMK AO1 SOG 60 3001 SLP211 T10051047 =
2018-02-19 23:00 METAR CWIS 192300Z AUTO 23006KT M01/M05 RMK AO1 SOG 60 0002 SLP208 T10081050 =
2018-02-19 22:00 METAR CWIS 192200Z AUTO 23006KT M01/M05 RMK AO1 SOG 60 3004 SLP212 T10091052 =
2018-02-19 21:00 METAR CWIS 192100Z AUTO 23007KT M01/M06 RMK AO1 SOG 60 3001 SLP212 T10081060 =
2018-02-19 20:00 METAR CWIS 192000Z AUTO 22008G15KT M01/M07 RMK AO1 SOG 60 6013 PK WND 25019/1940
                 SLP206 T10051071 =
2018-02-19 19:00 METAR CWIS 191900Z AUTO 22009G16KT M02/M07 RMK AO1 SOG 60 6020 PK WND 18018/1801
                 SLP211 T10181073 =
2018-02-19 18:00 METAR CWIS 191800Z AUTO 21009G15KT M02/M08 RMK AO1 SOG 60 8022 PK WND 26022/1725
                 SLP213 T10171080 =
2018-02-19 17:00 METAR CWIS 191700Z AUTO 22009G19KT M02/M08 RMK AO1 SOG 60 6023 PK WND 21019/1658
                 SLP224 T10201077 =
2018-02-19 16:00 METAR CWIS 191600Z AUTO 21009G18KT M04/M08 RMK AO1 SOG 60 6024 PK WND 22020/1541
                 SLP237 T10421084 =
2018-02-19 15:00 METAR CWIS 191500Z AUTO 21010G18KT M05/M08 RMK AO1 SOG 61 8025 PK WND 22020/1413
                 SLP242 T10541082 =
2018-02-19 14:00 METAR CWIS 191400Z AUTO 21011G20KT M06/M08 RMK AO1 SOG 61 8016 PK WND 20020/1350
                 SLP255 T10591078 =
2018-02-19 13:00 METAR CWIS 191300Z AUTO 21007KT M06/M07 RMK AO1 SOG 61 8003 SLP265 T10551071 =
2018-02-19 12:00 METAR CWIS 191200Z AUTO 23006KT M07/M07 RMK AO1 SOG 61 0005 SLP270 T10661067 =
2018-02-19 11:00 METAR CWIS 191100Z AUTO 24005KT M07/M07 RMK AO1 SOG 61 3006 PK WND 23017/1017
                 SLP272 T10721074 =
2018-02-19 10:00 METAR CWIS 191000Z AUTO 23006G15KT M07/M08 RMK AO1 SOG 61 5002 SLP265 T10711075
                 =

Support USWX by starting your Amazon purchase here.